createdAt,value
2023-04-15T00:01:48.487Z,44.60
2023-04-15T00:04:20.575Z,44.70
2023-04-15T00:06:54.805Z,44.70
2023-04-15T00:09:22.079Z,44.80
2023-04-15T00:11:50.435Z,44.80
2023-04-15T00:14:17.436Z,44.80
2023-04-15T00:16:44.529Z,44.90
2023-04-15T00:19:11.377Z,45.00
2023-04-15T00:21:38.964Z,45.00
2023-04-15T00:24:05.946Z,45.00
2023-04-15T00:26:33.176Z,45.00
2023-04-15T00:29:00.202Z,45.00
2023-04-15T00:31:27.406Z,45.00
2023-04-15T00:33:56.803Z,45.00
2023-04-15T00:36:28.336Z,45.00
2023-04-15T00:38:55.122Z,45.00
2023-04-15T00:41:23.035Z,45.20
2023-04-15T00:43:50.151Z,45.10
2023-04-15T00:46:20.723Z,45.10
2023-04-15T00:48:53.863Z,45.20
2023-04-15T00:51:20.934Z,45.20
2023-04-15T00:53:51.874Z,45.30
2023-04-15T00:56:24.397Z,45.30
2023-04-15T00:58:55.094Z,45.30
2023-04-15T01:01:27.941Z,45.40
2023-04-15T01:03:58.766Z,45.40
2023-04-15T01:06:28.326Z,45.40
2023-04-15T01:08:56.218Z,45.50
2023-04-15T01:11:24.272Z,45.50
2023-04-15T01:13:55.117Z,45.60
2023-04-15T01:16:22.173Z,45.60
2023-04-15T01:18:52.183Z,45.60
2023-04-15T01:21:21.983Z,45.60
2023-04-15T01:23:51.604Z,45.60
2023-04-15T01:26:18.884Z,45.60
2023-04-15T01:28:48.963Z,45.70
2023-04-15T01:31:16.383Z,45.60
2023-04-15T01:33:43.719Z,45.60
2023-04-15T01:36:13.552Z,45.50
2023-04-15T01:38:41.185Z,45.60
2023-04-15T01:41:08.209Z,45.50
2023-04-15T01:43:41.236Z,45.60
2023-04-15T01:46:08.252Z,45.50
2023-04-15T01:48:35.304Z,45.60
2023-04-15T01:51:02.158Z,45.60
2023-04-15T01:53:29.491Z,45.70
2023-04-15T01:55:56.405Z,45.80
2023-04-15T01:58:23.275Z,45.90
2023-04-15T02:00:50.166Z,45.90
2023-04-15T02:03:18.137Z,46.00
2023-04-15T02:05:51.065Z,46.00
2023-04-15T02:08:17.872Z,46.10
2023-04-15T02:10:44.733Z,46.10
2023-04-15T02:13:11.587Z,46.10
2023-04-15T02:15:38.498Z,46.20
2023-04-15T02:18:08.176Z,46.20
2023-04-15T02:20:36.289Z,46.20
2023-04-15T02:23:03.199Z,46.20
2023-04-15T02:25:32.360Z,46.20
2023-04-15T02:28:01.686Z,46.20
2023-04-15T02:30:30.842Z,46.20
2023-04-15T02:32:57.762Z,46.30
2023-04-15T02:35:29.803Z,46.20
2023-04-15T02:37:58.780Z,46.30
2023-04-15T02:40:28.226Z,46.30
2023-04-15T02:42:57.611Z,46.20
2023-04-15T02:45:28.114Z,46.20
2023-04-15T02:47:55.355Z,46.30
2023-04-15T02:50:23.609Z,46.30
2023-04-15T02:52:52.742Z,46.40
2023-04-15T02:55:19.751Z,46.40
2023-04-15T02:57:46.619Z,46.40
2023-04-15T03:00:14.187Z,46.50
2023-04-15T03:02:42.354Z,46.50
2023-04-15T03:05:14.908Z,46.50
2023-04-15T03:07:44.214Z,46.60
2023-04-15T03:10:14.036Z,46.60
2023-04-15T03:12:40.995Z,46.60
2023-04-15T03:15:09.642Z,46.60
2023-04-15T03:17:36.699Z,46.60
2023-04-15T03:20:05.592Z,46.70
2023-04-15T03:22:33.314Z,46.70
2023-04-15T03:25:00.472Z,46.70
2023-04-15T03:27:27.336Z,46.80
2023-04-15T03:29:56.861Z,46.80
2023-04-15T03:32:23.822Z,46.80
2023-04-15T03:34:50.744Z,46.80
2023-04-15T03:37:19.824Z,46.90
2023-04-15T03:39:46.891Z,46.90
2023-04-15T03:42:18.363Z,46.90
2023-04-15T03:44:48.278Z,47.00
2023-04-15T03:47:15.186Z,47.00
2023-04-15T03:49:44.632Z,47.00
2023-04-15T03:52:13.760Z,47.00
2023-04-15T03:54:40.675Z,47.00
2023-04-15T03:57:07.655Z,47.00
2023-04-15T03:59:36.730Z,47.00
2023-04-15T04:02:03.694Z,47.10
2023-04-15T04:04:30.649Z,47.10
2023-04-15T04:06:57.680Z,47.10
2023-04-15T04:09:27.808Z,47.10
2023-04-15T04:11:57.858Z,47.10
2023-04-15T04:14:29.778Z,47.10
2023-04-15T04:16:59.225Z,47.10
2023-04-15T04:19:29.980Z,47.10
2023-04-15T04:21:57.034Z,47.00
2023-04-15T04:24:23.941Z,47.10
2023-04-15T04:26:51.090Z,47.10
2023-04-15T04:29:17.987Z,47.10
2023-04-15T04:31:44.953Z,47.10
2023-04-15T04:34:12.139Z,47.10
2023-04-15T04:36:39.017Z,47.10
2023-04-15T04:39:05.848Z,47.10
2023-04-15T04:41:32.657Z,47.10
2023-04-15T04:43:59.896Z,47.10
2023-04-15T04:46:29.109Z,47.20
2023-04-15T04:48:55.945Z,47.20
2023-04-15T04:51:23.249Z,47.30
2023-04-15T04:53:50.099Z,47.30
2023-04-15T04:56:17.023Z,47.40
2023-04-15T04:58:46.683Z,47.40
2023-04-15T05:01:16.736Z,47.40
2023-04-15T05:03:43.681Z,47.50
2023-04-15T05:06:10.666Z,47.50
2023-04-15T05:08:39.197Z,47.60
2023-04-15T05:11:07.342Z,47.60
2023-04-15T05:13:34.299Z,47.60
2023-04-15T05:16:03.261Z,47.70
2023-04-15T05:18:30.634Z,47.70
2023-04-15T05:20:58.050Z,47.90
2023-04-15T05:23:25.009Z,47.90
2023-04-15T05:25:52.117Z,48.00
2023-04-15T05:28:19.075Z,48.00
2023-04-15T05:30:46.192Z,48.00
2023-04-15T05:33:15.821Z,48.00
2023-04-15T05:35:42.636Z,48.10
2023-04-15T05:38:11.751Z,48.00
2023-04-15T05:40:40.801Z,48.00
2023-04-15T05:43:07.834Z,48.10
2023-04-15T05:45:36.919Z,48.10
2023-04-15T05:48:04.086Z,48.20
2023-04-15T05:50:30.968Z,48.10
2023-04-15T05:52:57.881Z,48.10
2023-04-15T05:55:24.860Z,48.10
2023-04-15T05:57:52.178Z,48.20
2023-04-15T06:00:19.233Z,48.20
2023-04-15T06:02:46.294Z,48.20
2023-04-15T06:05:13.725Z,48.20
2023-04-15T06:07:40.849Z,48.30
2023-04-15T06:10:08.568Z,48.30
2023-04-15T06:12:35.907Z,48.30
2023-04-15T06:15:02.865Z,48.20
2023-04-15T06:17:31.979Z,48.20
2023-04-15T06:20:01.433Z,48.20
2023-04-15T06:22:28.299Z,48.30
2023-04-15T06:24:55.738Z,48.40
2023-04-15T06:27:23.207Z,48.40
2023-04-15T06:29:50.131Z,48.40
2023-04-15T06:32:16.940Z,48.50
2023-04-15T06:34:46.118Z,48.50
2023-04-15T06:37:16.245Z,48.50
2023-04-15T06:39:47.975Z,48.60
2023-04-15T06:42:20.283Z,48.60
2023-04-15T06:44:47.163Z,48.60
2023-04-15T06:47:14.783Z,48.60
2023-04-15T06:49:43.060Z,48.70
2023-04-15T06:52:13.596Z,48.80
2023-04-15T06:54:42.810Z,48.90
2023-04-15T06:57:12.270Z,49.00
2023-04-15T06:59:39.180Z,49.20
2023-04-15T07:02:07.866Z,49.40
2023-04-15T07:04:36.865Z,49.50
2023-04-15T07:07:03.867Z,49.60
2023-04-15T07:09:31.288Z,49.60
2023-04-15T07:12:00.464Z,49.60
2023-04-15T07:14:33.994Z,49.60
2023-04-15T07:17:00.932Z,49.40
2023-04-15T07:19:27.844Z,49.40
2023-04-15T07:21:54.684Z,49.30
2023-04-15T07:24:26.719Z,49.30
2023-04-15T07:26:59.465Z,49.30
2023-04-15T07:29:30.035Z,49.30
2023-04-15T07:31:57.328Z,49.20
2023-04-15T07:34:24.645Z,49.10
2023-04-15T07:36:52.005Z,49.00
2023-04-15T07:39:19.168Z,48.80
2023-04-15T07:41:46.614Z,48.50
2023-04-15T07:44:13.720Z,48.40
2023-04-15T07:46:40.814Z,48.30
2023-04-15T07:49:10.192Z,48.30
2023-04-15T07:51:41.785Z,48.20
2023-04-15T07:54:10.834Z,48.10
2023-04-15T07:56:37.725Z,48.00
2023-04-15T07:59:06.086Z,48.10
2023-04-15T08:01:33.161Z,48.10
2023-04-15T08:04:00.439Z,48.20
2023-04-15T08:06:32.978Z,48.30
2023-04-15T08:09:00.148Z,48.40
2023-04-15T08:11:27.766Z,48.30
2023-04-15T08:13:54.759Z,48.20
2023-04-15T08:16:24.777Z,48.10
2023-04-15T08:18:57.066Z,48.00
2023-04-15T08:21:27.676Z,47.90
2023-04-15T08:23:57.029Z,47.70
2023-04-15T08:26:24.174Z,47.50
2023-04-15T08:28:51.381Z,47.30
2023-04-15T08:31:19.533Z,47.20
2023-04-15T08:33:46.750Z,47.00
2023-04-15T08:36:16.296Z,46.80
2023-04-15T08:38:44.746Z,46.70
2023-04-15T08:41:40.707Z,46.50
2023-04-15T08:44:12.842Z,46.00
2023-04-15T08:46:42.531Z,46.10
2023-04-15T08:49:13.216Z,45.90
2023-04-15T08:51:43.781Z,45.70
2023-04-15T08:54:11.440Z,45.60
2023-04-15T08:56:39.525Z,45.70
2023-04-15T08:59:07.162Z,45.90
2023-04-15T09:01:34.353Z,46.00
2023-04-15T09:04:03.548Z,46.00
2023-04-15T09:06:30.405Z,45.90
2023-04-15T09:08:59.654Z,45.60
2023-04-15T09:11:31.466Z,45.30
2023-04-15T09:13:58.444Z,45.10
2023-04-15T09:16:28.449Z,45.00
2023-04-15T09:18:57.796Z,44.70
2023-04-15T09:21:27.807Z,44.30
2023-04-15T09:24:02.462Z,44.10
2023-04-15T09:26:35.690Z,43.50
2023-04-15T09:29:13.572Z,43.30
2023-04-15T09:31:41.824Z,43.00
2023-04-15T09:34:09.076Z,43.00
2023-04-15T09:36:57.088Z,42.60
2023-04-15T09:39:24.192Z,42.30
2023-04-15T09:42:08.204Z,42.60
2023-04-15T09:44:38.273Z,42.20
2023-04-15T09:47:07.428Z,42.40
2023-04-15T09:49:34.412Z,42.20
2023-04-15T09:52:06.344Z,42.20
2023-04-15T09:54:38.757Z,42.10
2023-04-15T09:57:10.220Z,41.80
2023-04-15T09:59:39.600Z,41.50
2023-04-15T10:02:09.310Z,41.40
2023-04-15T10:04:40.786Z,41.10
2023-04-15T10:07:12.257Z,40.90
2023-04-15T10:09:39.840Z,40.70
2023-04-15T10:12:07.369Z,40.50
2023-04-15T10:14:38.846Z,40.00
2023-04-15T10:17:06.466Z,39.60
2023-04-15T10:19:37.233Z,39.90
2023-04-15T10:22:04.792Z,40.40
2023-04-15T10:24:34.413Z,40.50
2023-04-15T10:27:07.473Z,40.50
2023-04-15T10:29:37.680Z,40.60
2023-04-15T10:32:07.510Z,40.60
2023-04-15T10:34:35.021Z,40.50
2023-04-15T10:37:03.920Z,40.40
2023-04-15T10:39:36.436Z,40.10
2023-04-15T10:42:12.862Z,39.70
2023-04-15T10:44:45.305Z,39.30
2023-04-15T10:47:20.522Z,39.30
2023-04-15T10:49:59.555Z,38.90
2023-04-15T10:52:33.043Z,38.60
2023-04-15T10:55:25.759Z,38.50
2023-04-15T10:58:03.200Z,38.40
2023-04-15T11:00:32.969Z,38.80
2023-04-15T11:03:05.717Z,38.70
2023-04-15T11:05:42.033Z,38.60
2023-04-15T11:08:13.608Z,38.50
2023-04-15T11:10:40.406Z,38.70
2023-04-15T11:13:09.970Z,39.00
2023-04-15T11:15:47.114Z,39.20
2023-04-15T11:18:19.733Z,38.90
2023-04-15T11:20:52.507Z,39.00
2023-04-15T11:23:30.726Z,38.70
2023-04-15T11:25:59.976Z,38.70
2023-04-15T11:28:31.205Z,38.80
2023-04-15T11:30:59.240Z,38.80
2023-04-15T11:33:29.309Z,38.70
2023-04-15T11:35:56.170Z,38.60
2023-04-15T11:38:23.004Z,38.60
2023-04-15T11:40:56.207Z,38.60
2023-04-15T11:43:23.868Z,38.80
2023-04-15T11:45:58.819Z,39.00
2023-04-15T11:48:34.196Z,39.00
2023-04-15T11:51:07.431Z,38.80
2023-04-15T11:53:48.224Z,38.80
2023-04-15T11:56:26.007Z,38.70
2023-04-15T11:58:57.166Z,38.90
2023-04-15T12:01:39.342Z,39.50
2023-04-15T12:04:22.422Z,38.60
2023-04-15T12:06:51.922Z,38.60
2023-04-15T12:09:20.342Z,38.80
2023-04-15T12:11:58.338Z,38.70
2023-04-15T12:14:30.086Z,38.60
2023-04-15T12:17:08.135Z,38.60
2023-04-15T12:19:48.365Z,38.50
2023-04-15T12:22:17.311Z,38.50
2023-04-15T12:24:47.939Z,38.70
2023-04-15T12:27:17.668Z,38.80
2023-04-15T12:29:44.685Z,39.00
2023-04-15T12:32:21.440Z,39.00
2023-04-15T12:34:53.337Z,39.00
2023-04-15T12:37:23.125Z,39.10
2023-04-15T12:39:50.872Z,39.10
2023-04-15T12:42:18.869Z,39.10
2023-04-15T12:44:46.942Z,39.20
2023-04-15T12:47:14.541Z,39.20
2023-04-15T12:49:41.751Z,39.20
2023-04-15T12:52:08.960Z,39.20
2023-04-15T12:54:36.329Z,39.20
2023-04-15T12:57:06.976Z,39.30
2023-04-15T12:59:35.562Z,39.00
2023-04-15T13:02:03.309Z,38.80
2023-04-15T13:04:31.336Z,38.60
2023-04-15T13:06:58.544Z,38.50
2023-04-15T13:09:25.860Z,38.30
2023-04-15T13:11:53.088Z,37.80
2023-04-15T13:14:22.238Z,37.50
2023-04-15T13:16:53.852Z,37.00
2023-04-15T13:19:20.681Z,36.70
2023-04-15T13:21:47.643Z,36.80
2023-04-15T13:24:14.506Z,36.80
2023-04-15T13:26:41.965Z,36.40
2023-04-15T13:29:08.896Z,36.20
2023-04-15T13:31:35.823Z,36.00
2023-04-15T13:34:03.059Z,35.90
2023-04-15T13:36:32.264Z,35.90
2023-04-15T13:39:01.513Z,35.90
2023-04-15T13:41:28.350Z,36.00
2023-04-15T13:43:58.343Z,35.90
2023-04-15T13:46:26.156Z,36.00
2023-04-15T13:48:53.343Z,36.30
2023-04-15T13:51:24.784Z,36.40
2023-04-15T13:53:51.665Z,36.40
2023-04-15T13:56:24.099Z,36.30
2023-04-15T13:58:53.102Z,36.30
2023-04-15T14:01:20.024Z,36.00
2023-04-15T14:03:46.973Z,36.00
2023-04-15T14:06:13.974Z,36.10
2023-04-15T14:08:43.710Z,36.00
2023-04-15T14:11:12.763Z,36.00
2023-04-15T14:13:39.689Z,36.00
2023-04-15T14:16:06.847Z,35.90
2023-04-15T14:18:37.438Z,35.80
2023-04-15T14:21:08.992Z,35.80
2023-04-15T14:23:35.772Z,35.80
2023-04-15T14:26:02.660Z,36.00
2023-04-15T14:28:29.943Z,36.00
2023-04-15T14:30:59.007Z,35.90
2023-04-15T14:33:28.927Z,36.00
2023-04-15T14:35:56.133Z,36.10
2023-04-15T14:38:23.047Z,36.10
2023-04-15T14:40:52.328Z,35.90
2023-04-15T14:43:21.781Z,35.90
2023-04-15T14:45:48.737Z,35.70
2023-04-15T14:48:16.308Z,35.60
2023-04-15T14:50:47.707Z,35.50
2023-04-15T14:53:17.156Z,35.30
2023-04-15T14:55:45.017Z,35.40
2023-04-15T14:58:15.355Z,35.10
2023-04-15T15:00:44.947Z,35.10
2023-04-15T15:03:13.222Z,35.10
2023-04-15T15:05:51.097Z,35.10
2023-04-15T15:08:18.066Z,35.00
2023-04-15T15:10:48.039Z,35.10
2023-04-15T15:13:17.015Z,35.10
2023-04-15T15:15:44.024Z,35.30
2023-04-15T15:18:11.464Z,35.50
2023-04-15T15:20:38.536Z,35.60
2023-04-15T15:23:05.436Z,35.70
2023-04-15T15:25:34.888Z,35.80
2023-04-15T15:28:06.782Z,36.00
2023-04-15T15:30:33.723Z,36.10
2023-04-15T15:33:02.932Z,36.20
2023-04-15T15:35:32.428Z,36.30
2023-04-15T15:38:01.550Z,36.20
2023-04-15T15:40:31.212Z,36.00
2023-04-15T15:42:58.100Z,35.80
2023-04-15T15:45:27.145Z,35.50
2023-04-15T15:47:54.405Z,35.30
2023-04-15T15:50:21.426Z,35.20
2023-04-15T15:52:52.944Z,35.10
2023-04-15T15:55:19.749Z,35.00
2023-04-15T15:57:46.677Z,35.20
2023-04-15T16:00:14.317Z,35.20
2023-04-15T16:05:13.505Z,35.20
2023-04-15T16:07:40.457Z,35.30
2023-04-15T16:10:08.668Z,35.50
2023-04-15T16:12:35.648Z,35.50
2023-04-15T16:15:03.823Z,35.50
2023-04-15T16:17:30.731Z,35.40
2023-04-15T16:20:00.845Z,35.30
2023-04-15T16:22:28.314Z,35.40
2023-04-15T16:24:58.665Z,35.60
2023-04-15T16:27:27.709Z,35.70
2023-04-15T16:29:54.593Z,35.70
2023-04-15T16:32:21.684Z,35.70
2023-04-15T16:34:48.727Z,35.70
2023-04-15T16:37:15.918Z,35.70
2023-04-15T16:39:42.842Z,35.70
2023-04-15T16:42:12.739Z,35.60
2023-04-15T16:44:39.687Z,35.60
2023-04-15T16:47:06.878Z,35.60
2023-04-15T16:49:36.017Z,35.50
2023-04-15T16:52:03.212Z,35.40
2023-04-15T16:54:30.130Z,35.50
2023-04-15T16:57:02.007Z,35.60
2023-04-15T16:59:31.133Z,35.60
2023-04-15T17:01:58.313Z,35.70
2023-04-15T17:04:25.853Z,35.70
2023-04-15T17:06:52.779Z,35.70
2023-04-15T17:09:19.627Z,35.70
2023-04-15T17:11:49.523Z,35.70
2023-04-15T17:14:20.966Z,35.90
2023-04-15T17:16:50.022Z,36.00
2023-04-15T17:19:16.902Z,36.10
2023-04-15T17:21:43.776Z,36.10
2023-04-15T17:24:12.938Z,36.10
2023-04-15T17:26:39.811Z,36.10
2023-04-15T17:29:07.013Z,36.20
2023-04-15T17:31:36.464Z,36.30
2023-04-15T17:34:09.239Z,36.30
2023-04-15T17:36:37.908Z,36.40
2023-04-15T17:39:05.165Z,36.60
2023-04-15T17:41:35.023Z,36.70
2023-04-15T17:44:02.115Z,36.90
2023-04-15T17:46:33.708Z,37.10
2023-04-15T17:49:00.623Z,37.20
2023-04-15T17:51:29.834Z,37.40
2023-04-15T17:53:59.028Z,37.30
2023-04-15T17:56:27.477Z,37.40
2023-04-15T17:59:02.526Z,37.40
2023-04-15T18:01:35.346Z,37.50
2023-04-15T18:04:02.540Z,37.60
2023-04-15T18:06:29.759Z,37.80
2023-04-15T18:08:56.794Z,37.90
2023-04-15T18:11:24.032Z,38.00
2023-04-15T18:13:50.950Z,38.10
2023-04-15T18:16:17.921Z,38.40
2023-04-15T18:18:47.094Z,38.50
2023-04-15T18:21:18.973Z,38.50
2023-04-15T18:23:46.050Z,38.60
2023-04-15T18:26:17.754Z,38.50
2023-04-15T18:28:51.823Z,38.60
2023-04-15T18:31:18.708Z,38.80
2023-04-15T18:33:45.668Z,38.80
2023-04-15T18:36:12.727Z,38.90
2023-04-15T18:38:39.747Z,38.90
2023-04-15T18:41:08.276Z,39.10
2023-04-15T18:43:38.877Z,39.20
2023-04-15T18:46:12.485Z,39.30
2023-04-15T18:48:39.408Z,39.40
2023-04-15T18:51:08.524Z,39.60
2023-04-15T18:53:35.637Z,39.70
2023-04-15T18:56:03.399Z,39.80
2023-04-15T18:59:09.261Z,39.90
2023-04-15T19:01:21.918Z,40.10
2023-04-15T19:03:51.406Z,40.30
2023-04-15T19:06:22.210Z,40.70
2023-04-15T19:08:49.276Z,40.80
2023-04-15T19:11:18.606Z,40.90
2023-04-15T19:13:45.587Z,41.00
2023-04-15T19:16:15.461Z,41.20
2023-04-15T19:18:42.986Z,41.30
2023-04-15T19:21:12.823Z,41.60
2023-04-15T19:23:42.972Z,41.70
2023-04-15T19:26:11.371Z,41.80
2023-04-15T19:28:38.227Z,42.10
2023-04-15T19:31:05.381Z,42.40
2023-04-15T19:33:34.401Z,42.60
2023-04-15T19:36:06.482Z,42.80
2023-04-15T19:38:37.782Z,43.00
2023-04-15T19:41:10.454Z,43.20
2023-04-15T19:43:39.434Z,43.50
2023-04-15T19:46:07.337Z,43.60
2023-04-15T19:48:37.664Z,43.70
2023-04-15T19:51:04.819Z,43.70
2023-04-15T19:53:31.704Z,43.80
2023-04-15T19:55:58.741Z,44.00
2023-04-15T19:58:27.717Z,44.10
2023-04-15T20:00:54.717Z,44.30
2023-04-15T20:03:21.819Z,44.40
2023-04-15T20:05:53.395Z,44.50
2023-04-15T20:08:22.542Z,44.70
2023-04-15T20:10:49.444Z,44.80
2023-04-15T20:13:18.620Z,45.00
2023-04-15T20:15:45.630Z,45.10
2023-04-15T20:18:12.599Z,45.30
2023-04-15T20:20:40.384Z,45.30
2023-04-15T20:23:07.204Z,45.40
2023-04-15T20:25:34.066Z,45.50
2023-04-15T20:28:03.237Z,45.60
2023-04-15T20:30:30.409Z,45.80
2023-04-15T20:33:02.264Z,45.80
2023-04-15T20:35:30.878Z,45.80
2023-04-15T20:38:00.804Z,45.80
2023-04-15T20:40:28.395Z,45.90
2023-04-15T20:42:55.992Z,46.10
2023-04-15T20:45:22.875Z,46.20
2023-04-15T20:47:49.839Z,46.30
2023-04-15T20:50:16.848Z,46.30
2023-04-15T20:52:46.252Z,46.50
2023-04-15T20:55:13.246Z,46.60
2023-04-15T20:57:40.389Z,46.60
2023-04-15T21:00:11.082Z,46.70
2023-04-15T21:02:38.534Z,46.80
2023-04-15T21:05:06.250Z,46.90
2023-04-15T21:07:35.616Z,46.90
2023-04-15T21:10:05.421Z,47.00
2023-04-15T21:12:37.485Z,47.10
2023-04-15T21:15:07.548Z,47.10
2023-04-15T21:17:35.453Z,47.20
2023-04-15T21:20:02.839Z,47.40
2023-04-15T21:22:32.362Z,47.40
2023-04-15T21:25:02.302Z,47.50
2023-04-15T21:27:29.492Z,47.30
2023-04-15T21:29:56.400Z,47.30
2023-04-15T21:32:26.005Z,47.50
2023-04-15T21:34:52.918Z,47.50
2023-04-15T21:37:22.856Z,47.50
2023-04-15T21:39:49.696Z,47.50
2023-04-15T21:42:16.723Z,47.60
2023-04-15T21:44:47.983Z,47.70
2023-04-15T21:47:17.556Z,47.70
2023-04-15T21:49:44.763Z,47.70
2023-04-15T21:52:13.830Z,47.70
2023-04-15T21:54:43.169Z,47.80
2023-04-15T21:57:14.597Z,47.80
2023-04-15T21:59:41.488Z,47.90
2023-04-15T22:02:11.582Z,47.90
2023-04-15T22:04:38.560Z,47.90
2023-04-15T22:07:05.869Z,48.00
2023-04-15T22:09:33.160Z,48.10
2023-04-15T22:12:04.249Z,48.10
2023-04-15T22:14:31.249Z,48.40
2023-04-15T22:16:58.258Z,48.20
2023-04-15T22:19:27.534Z,48.30
2023-04-15T22:21:56.820Z,48.40
2023-04-15T22:24:33.540Z,48.50
2023-04-15T22:27:07.231Z,48.60
2023-04-15T22:29:34.628Z,48.60
2023-04-15T22:32:07.101Z,48.70
2023-04-15T22:34:37.177Z,48.80
2023-04-15T22:37:06.304Z,48.80
2023-04-15T22:39:35.848Z,48.80
2023-04-15T22:42:03.208Z,48.80
2023-04-15T22:44:30.039Z,48.80
2023-04-15T22:46:59.042Z,48.90
2023-04-15T22:49:26.444Z,48.90
2023-04-15T22:51:55.938Z,49.00
2023-04-15T22:54:22.856Z,49.00
2023-04-15T22:56:51.874Z,49.00
2023-04-15T22:59:19.969Z,49.00
2023-04-15T23:01:46.909Z,49.10
2023-04-15T23:04:26.085Z,49.10
2023-04-15T23:06:57.251Z,49.20
2023-04-15T23:09:28.746Z,49.20
2023-04-15T23:11:56.768Z,49.20
2023-04-15T23:14:23.865Z,49.30
2023-04-15T23:16:53.158Z,49.20
2023-04-15T23:19:20.020Z,49.30
2023-04-15T23:21:46.910Z,49.20
2023-04-15T23:24:13.861Z,49.20
2023-04-15T23:26:43.456Z,49.20
2023-04-15T23:29:10.614Z,49.30
2023-04-15T23:31:37.691Z,49.30
2023-04-15T23:34:04.543Z,49.40
2023-04-15T23:36:32.012Z,49.40
2023-04-15T23:39:01.455Z,49.40
2023-04-15T23:41:30.803Z,49.40
2023-04-15T23:43:59.946Z,49.40
2023-04-15T23:46:27.215Z,49.40
2023-04-15T23:48:57.280Z,49.40
2023-04-15T23:51:24.735Z,49.40
2023-04-15T23:53:52.414Z,49.40
2023-04-15T23:56:23.839Z,49.60
2023-04-15T23:58:50.765Z,49.60
